This is the latest recevied weather packets stored in our database for station/object IW1EYZ-3. If no packets are shown the sender has not sent any weather packets the latest 10 day(s).
| Time | Temp. | Humidity | Pressure | Rain* | Wind** | Luminosity | Snow |
|---|---|---|---|---|---|---|---|
| 1777396113 | 20° C | 51% | 1016 hPa | - | - | - | - |
| 1777394913 | 21.11° C | 48% | 1016 hPa | - | - | - | - |
| 1777393713 | 28.33° C | 32% | 1015.8 hPa | - | - | - | - |
| 1777392512 | 30° C | 29% | 1015.9 hPa | - | - | - | - |
| 1777391312 | 29.44° C | 29% | 1016 hPa | - | - | - | - |
| 1777390111 | 31.67° C | 26% | 1016.1 hPa | - | - | - | - |
| 1777388911 | 30.56° C | 27% | 1016.3 hPa | - | - | - | - |
| 1777387711 | 31.11° C | 28% | 1016.5 hPa | - | - | - | - |
| 1777386510 | 33.33° C | 24% | 1016.5 hPa | - | - | - | - |
| 1777385310 | 30° C | 30% | 1016.7 hPa | - | - | - | - |
| 1777384110 | 30° C | 30% | 1016.9 hPa | - | - | - | - |
| 1777382909 | 26.11° C | 37% | 1017.2 hPa | - | - | - | - |
| 1777381709 | 26.67° C | 37% | 1017.3 hPa | - | - | - | - |
| 1777380509 | 28.89° C | 32% | 1017.4 hPa | - | - | - | - |
| 1777379308 | 28.89° C | 34% | 1017.4 hPa | - | - | - | - |
| 1777378108 | 26.67° C | 38% | 1017.5 hPa | - | - | - | - |
| 1777376908 | 26.67° C | 39% | 1017.6 hPa | - | - | - | - |
| 1777375708 | 27.22° C | 38% | 1017.8 hPa | - | - | - | - |
| 1777374507 | 26.11° C | 40% | 1018 hPa | - | - | - | - |
| 1777373307 | 24.44° C | 44% | 1018.1 hPa | - | - | - | - |
| 1777372106 | 25° C | 42% | 1018.1 hPa | - | - | - | - |
| 1777370906 | 24.44° C | 44% | 1018.2 hPa | - | - | - | - |
| 1777369706 | 22.22° C | 49% | 1018.4 hPa | - | - | - | - |
| 1777368506 | 22.22° C | 51% | 1018.5 hPa | - | - | - | - |
| 1777367305 | 21.11° C | 53% | 1018.6 hPa | - | - | - | - |
* Rain since midnight (hover to see other rain measurements)
** Current wind speed in m/s (hover to see current wind gust speed)